createdAt,value
2018-09-19T00:01:50.955Z,1018.3
2018-09-19T00:06:51.423Z,1018.4
2018-09-19T00:11:50.631Z,1018.4
2018-09-19T00:16:50.947Z,1018.4
2018-09-19T00:21:51.708Z,1018.4
2018-09-19T00:26:51.018Z,1018.4
2018-09-19T00:31:51.325Z,1018.4
2018-09-19T00:36:50.749Z,1018.4
2018-09-19T00:41:50.944Z,1018.4
2018-09-19T00:46:51.261Z,1018.6
2018-09-19T00:51:50.759Z,1018.7
2018-09-19T00:56:51.367Z,1018.6
2018-09-19T01:01:50.646Z,1018.5
2018-09-19T01:06:51.218Z,1018.7
2018-09-19T01:11:51.357Z,1018.7
2018-09-19T01:16:50.720Z,1018.8
2018-09-19T01:21:51.165Z,1018.8
2018-09-19T01:26:50.782Z,1018.8
2018-09-19T01:31:51.081Z,1018.9
2018-09-19T01:36:51.478Z,1019
2018-09-19T01:41:50.722Z,1018.9
2018-09-19T01:46:51.015Z,1019
2018-09-19T01:51:51.437Z,1018.9
2018-09-19T01:56:51.000Z,1018.9
2018-09-19T02:01:51.262Z,1019
2018-09-19T02:06:50.802Z,1019.1
2018-09-19T02:11:51.035Z,1019.1
2018-09-19T02:16:51.520Z,1019
2018-09-19T02:21:50.811Z,1019.1
2018-09-19T02:26:51.393Z,1019.2
2018-09-19T02:31:50.658Z,1019.1
2018-09-19T02:36:51.099Z,1019.1
2018-09-19T02:41:51.340Z,1019
2018-09-19T02:46:51.580Z,1019.1
2018-09-19T02:51:51.122Z,1019
2018-09-19T02:56:50.715Z,1019
2018-09-19T03:01:50.921Z,1019
2018-09-19T03:06:51.470Z,1018.9
2018-09-19T03:11:50.704Z,1019
2018-09-19T03:21:51.451Z,1019
2018-09-19T03:26:51.009Z,1019
2018-09-19T03:31:51.341Z,1019
2018-09-19T03:36:50.790Z,1018.9
2018-09-19T03:41:50.987Z,1019
2018-09-19T03:46:51.304Z,1018.9
2018-09-19T03:51:50.721Z,1019
2018-09-19T03:56:51.265Z,1019
2018-09-19T04:01:51.615Z,1019
2018-09-19T04:06:51.059Z,1019.1
2018-09-19T04:11:51.318Z,1019.1
2018-09-19T04:16:51.590Z,1019.2
2018-09-19T04:21:51.071Z,1019.2
2018-09-19T04:26:50.655Z,1019.2
2018-09-19T04:31:50.909Z,1019.2
2018-09-19T04:36:51.373Z,1019.2
2018-09-19T04:41:51.575Z,1019.3
2018-09-19T04:46:50.929Z,1019.2
2018-09-19T04:51:51.348Z,1019.2
2018-09-19T04:56:50.998Z,1019.2
2018-09-19T05:01:51.236Z,1019.1
2018-09-19T05:06:50.687Z,1019.1
2018-09-19T05:11:56.518Z,1019.1
2018-09-19T05:16:51.142Z,1019.1
2018-09-19T05:21:51.588Z,1019.2
2018-09-19T05:26:51.227Z,1019.2
2018-09-19T05:31:51.551Z,1019.3
2018-09-19T05:36:50.907Z,1019.3
2018-09-19T05:41:51.115Z,1019.4
2018-09-19T05:46:51.394Z,1019.4
2018-09-19T05:51:50.871Z,1019.4
2018-09-19T05:56:51.421Z,1019.3
2018-09-19T06:01:50.747Z,1019.2
2018-09-19T06:06:51.282Z,1019.3
2018-09-19T06:11:51.493Z,1019.3
2018-09-19T06:16:50.884Z,1019.2
2018-09-19T06:21:51.208Z,1019.1
2018-09-19T06:26:51.105Z,1019
2018-09-19T06:31:51.052Z,1019
2018-09-19T06:36:51.790Z,1019
2018-09-19T06:41:50.793Z,1019.1
2018-09-19T06:46:51.463Z,1019.1
2018-09-19T06:51:51.907Z,1019
2018-09-19T06:56:51.156Z,1019
2018-09-19T07:01:51.502Z,1018.9
2018-09-19T07:06:50.958Z,1018.8
2018-09-19T07:11:51.155Z,1018.8
2018-09-19T07:16:51.462Z,1018.8
2018-09-19T07:21:50.893Z,1018.9
2018-09-19T07:26:51.499Z,1018.9
2018-09-19T07:31:50.897Z,1018.9
2018-09-19T07:36:51.290Z,1018.8
2018-09-19T07:41:51.668Z,1018.8
2018-09-19T07:46:50.916Z,1018.9
2018-09-19T07:51:51.373Z,1018.9
2018-09-19T07:56:51.297Z,1018.9
2018-09-19T08:01:51.222Z,1019
2018-09-19T08:06:51.712Z,1018.8
2018-09-19T08:11:51.058Z,1018.8
2018-09-19T08:16:51.740Z,1018.9
2018-09-19T08:21:51.998Z,1018.9
2018-09-19T08:26:51.242Z,1018.9
2018-09-19T08:31:51.545Z,1018.8
2018-09-19T08:36:51.014Z,1018.8
2018-09-19T08:41:51.205Z,1018.8
2018-09-19T08:46:51.537Z,1018.9
2018-09-19T08:51:51.013Z,1018.9
2018-09-19T08:56:51.697Z,1018.9
2018-09-19T09:01:50.838Z,1018.9
2018-09-19T09:06:51.346Z,1018.8
2018-09-19T09:11:51.607Z,1018.7
2018-09-19T09:16:50.894Z,1018.5
2018-09-19T09:21:51.339Z,1018.5
2018-09-19T09:26:51.821Z,1018.5
2018-09-19T09:31:51.286Z,1018.6
2018-09-19T09:36:51.502Z,1018.5
2018-09-19T09:41:50.918Z,1018.5
2018-09-19T09:46:51.230Z,1018.4
2018-09-19T09:51:51.640Z,1018.3
2018-09-19T09:56:51.267Z,1018.3
2018-09-19T10:01:51.509Z,1018.2
2018-09-19T10:06:51.108Z,1018.2
2018-09-19T10:11:51.240Z,1018.2
2018-09-19T10:16:51.559Z,1018.1
2018-09-19T10:21:50.999Z,1018.1
2018-09-19T10:26:50.667Z,1018
2018-09-19T10:31:50.910Z,1018
2018-09-19T10:36:51.445Z,1018.1
2018-09-19T10:41:50.639Z,1018.1
2018-09-19T10:46:50.926Z,1018
2018-09-19T10:51:51.394Z,1018
2018-09-19T10:56:51.368Z,1017.9
2018-09-19T11:01:51.368Z,1017.8
2018-09-19T11:06:50.818Z,1017.7
2018-09-19T11:11:50.975Z,1017.7
2018-09-19T11:16:51.282Z,1017.8
2018-09-19T11:21:50.701Z,1017.7
2018-09-19T11:26:51.319Z,1017.8
2018-09-19T11:31:51.559Z,1017.8
2018-09-19T11:36:51.050Z,1017.9
2018-09-19T11:41:51.250Z,1017.8
2018-09-19T11:46:51.525Z,1017.7
2018-09-19T11:51:50.964Z,1017.6
2018-09-19T11:56:51.613Z,1017.5
2018-09-19T12:01:51.194Z,1017.5
2018-09-19T12:06:51.318Z,1017.6
2018-09-19T12:11:51.535Z,1017.7
2018-09-19T12:16:50.823Z,1017.6
2018-09-19T12:21:51.309Z,1017.5
2018-09-19T12:26:50.900Z,1017.4
2018-09-19T12:31:51.118Z,1017.4
2018-09-19T12:36:51.605Z,1017.4
2018-09-19T12:41:50.820Z,1017.4
2018-09-19T12:46:51.130Z,1017.3
2018-09-19T12:51:51.559Z,1017.2
2018-09-19T12:56:51.191Z,1017.2
2018-09-19T13:01:51.511Z,1017.2
2018-09-19T13:06:51.033Z,1017.1
2018-09-19T13:11:51.214Z,1017.2
2018-09-19T13:16:51.499Z,1017.1
2018-09-19T13:21:50.984Z,1017.2
2018-09-19T13:26:51.542Z,1017.2
2018-09-19T13:31:50.872Z,1017
2018-09-19T13:36:51.345Z,1017
2018-09-19T13:41:51.539Z,1017
2018-09-19T13:46:50.832Z,1016.9
2018-09-19T13:51:51.292Z,1016.9
2018-09-19T13:56:50.919Z,1016.8
2018-09-19T14:01:51.200Z,1016.8
2018-09-19T14:06:50.701Z,1016.7
2018-09-19T14:11:51.521Z,1016.7
2018-09-19T14:16:56.259Z,1016.7
2018-09-19T14:21:50.731Z,1016.6
2018-09-19T14:26:51.316Z,1016.5
2018-09-19T14:31:50.624Z,1016.6
2018-09-19T14:36:51.054Z,1016.7
2018-09-19T14:41:51.285Z,1016.6
2018-09-19T14:46:51.541Z,1016.5
2018-09-19T14:51:51.017Z,1016.6
2018-09-19T14:56:50.590Z,1016.5
2018-09-19T15:01:50.923Z,1016.6
2018-09-19T15:06:51.444Z,1016.5
2018-09-19T15:11:50.651Z,1016.5
2018-09-19T15:16:50.911Z,1016.5
2018-09-19T15:21:51.401Z,1016.5
2018-09-19T15:26:50.967Z,1016.4
2018-09-19T15:31:51.229Z,1016.5
2018-09-19T15:36:50.709Z,1016.5
2018-09-19T15:41:50.915Z,1016.6
2018-09-19T15:46:51.209Z,1016.5
2018-09-19T15:51:50.727Z,1016.5
2018-09-19T15:56:51.325Z,1016.6
2018-09-19T16:01:51.579Z,1016.6
2018-09-19T16:06:51.065Z,1016.7
2018-09-19T16:11:51.236Z,1016.7
2018-09-19T16:16:51.549Z,1016.7
2018-09-19T16:21:51.054Z,1016.8
2018-09-19T16:26:50.590Z,1016.8
2018-09-19T16:31:51.292Z,1016.7
2018-09-19T16:36:51.390Z,1016.9
2018-09-19T16:41:51.292Z,1016.9
2018-09-19T16:46:50.897Z,1016.9
2018-09-19T16:51:51.369Z,1017
2018-09-19T16:56:50.952Z,1017.1
2018-09-19T17:01:51.256Z,1017.1
2018-09-19T17:06:50.748Z,1017.1
2018-09-19T17:11:50.991Z,1017.1
2018-09-19T17:16:51.650Z,1017.2
2018-09-19T17:21:50.722Z,1017.3
2018-09-19T17:26:51.299Z,1017.3
2018-09-19T17:31:50.618Z,1017.3
2018-09-19T17:36:51.031Z,1017.4
2018-09-19T17:41:51.277Z,1017.5
2018-09-19T17:46:51.562Z,1017.5
2018-09-19T17:51:51.049Z,1017.6
2018-09-19T17:56:50.624Z,1017.6
2018-09-19T18:01:50.885Z,1017.7
2018-09-19T18:06:51.391Z,1017.8
2018-09-19T18:11:50.633Z,1017.8
2018-09-19T18:16:50.912Z,1017.9
2018-09-19T18:21:51.392Z,1018
2018-09-19T18:26:50.967Z,1018
2018-09-19T18:31:51.248Z,1018.2
2018-09-19T18:36:51.136Z,1018.3
2018-09-19T18:41:50.911Z,1018.4
2018-09-19T18:46:51.240Z,1018.5
2018-09-19T18:51:50.715Z,1018.6
2018-09-19T18:56:51.256Z,1018.6
2018-09-19T19:01:51.501Z,1018.7
2018-09-19T19:06:51.099Z,1018.8
2018-09-19T19:11:51.289Z,1018.9
2018-09-19T19:16:50.632Z,1018.9
2018-09-19T19:21:51.094Z,1018.9
2018-09-19T19:26:50.726Z,1018.9
2018-09-19T19:31:50.991Z,1019
2018-09-19T19:36:51.454Z,1019
2018-09-19T19:41:50.619Z,1019.1
2018-09-19T19:46:50.959Z,1019.1
2018-09-19T19:51:51.449Z,1019.1
2018-09-19T19:56:50.968Z,1019.2
2018-09-19T20:01:51.245Z,1019.3
2018-09-19T20:06:50.794Z,1019.4
2018-09-19T20:11:50.981Z,1019.3
2018-09-19T20:16:51.290Z,1019.4
2018-09-19T20:21:50.781Z,1019.4
2018-09-19T20:26:51.328Z,1019.4
2018-09-19T20:31:51.056Z,1019.5
2018-09-19T20:36:51.271Z,1019.6
2018-09-19T20:41:51.311Z,1019.6
2018-09-19T20:46:51.053Z,1019.6
2018-09-19T20:51:51.023Z,1019.7
2018-09-19T20:56:50.673Z,1019.7
2018-09-19T21:01:50.964Z,1019.7
2018-09-19T21:06:51.445Z,1019.8
2018-09-19T21:11:50.656Z,1019.8
2018-09-19T21:16:50.998Z,1019.9
2018-09-19T21:21:52.299Z,1020
2018-09-19T21:26:51.415Z,1019.9
2018-09-19T21:31:51.326Z,1020
2018-09-19T21:36:50.849Z,1020
2018-09-19T21:41:51.019Z,1020
2018-09-19T21:46:51.885Z,1020.1
2018-09-19T21:51:50.780Z,1020.2
2018-09-19T21:56:51.357Z,1020.1
2018-09-19T22:01:50.627Z,1020.1
2018-09-19T22:06:51.155Z,1020.2
2018-09-19T22:11:51.356Z,1020.2
2018-09-19T22:16:50.651Z,1020.1
2018-09-19T22:21:51.107Z,1020.1
2018-09-19T22:26:50.722Z,1020.1
2018-09-19T22:31:50.983Z,1020.1
2018-09-19T22:36:51.478Z,1020.1
2018-09-19T22:41:50.709Z,1020.1
2018-09-19T22:46:50.962Z,1020
2018-09-19T22:51:51.817Z,1020
2018-09-19T22:56:50.997Z,1019.9
2018-09-19T23:01:51.746Z,1019.9
2018-09-19T23:06:50.853Z,1020
2018-09-19T23:11:51.018Z,1020
2018-09-19T23:16:51.427Z,1019.9
2018-09-19T23:21:50.803Z,1019.9
2018-09-19T23:26:51.352Z,1020
2018-09-19T23:31:50.682Z,1020
2018-09-19T23:36:51.154Z,1020
2018-09-19T23:41:51.363Z,1019.9
2018-09-19T23:46:50.719Z,1019.8
2018-09-19T23:51:51.107Z,1019.8
2018-09-19T23:56:50.654Z,1019.8
